Terminal Aerodrome Forecast
Issued by NWS

Home | Current Version | Previous Version | Graphics & Text | Print | Product List | Glossary On
Versions: 1 2 3 4 5 6 7 8 9 10 11 12 13 14 15
000
FTUS43 KLSX 181138
TAFSUS
TAF
KSUS 181138Z 1812/1912 20011G19KT P6SM -SHRA OVC040
     FM181400 23013G25KT P6SM -SHRA VCTS OVC025CB
     FM181800 32020G36KT 5SM -SHRA OVC020
     FM182200 32019G35KT P6SM BKN025
     FM190600 31012KT P6SM SKC=

USA.gov is the U.S. government's official web portal to all federal, state and local government web resources and services.